createdAt,value
2018-08-23T00:01:32.326Z,34.23
2018-08-23T00:04:09.978Z,30.57
2018-08-23T00:06:41.423Z,29.40
2018-08-23T00:09:09.878Z,29.73
2018-08-23T00:11:47.720Z,32.40
2018-08-23T00:14:16.940Z,29.73
2018-08-23T00:16:46.550Z,32.77
2018-08-23T00:19:15.727Z,33.97
2018-08-23T00:21:47.908Z,36.23
2018-08-23T00:24:17.624Z,34.33
2018-08-23T00:26:53.688Z,32.20
2018-08-23T00:29:27.472Z,37.47
2018-08-23T00:31:57.617Z,39.07
2018-08-23T00:34:33.680Z,35.97
2018-08-23T00:37:02.744Z,39.17
2018-08-23T00:39:31.224Z,39.90
2018-08-23T00:42:05.126Z,42.57
2018-08-23T00:44:52.074Z,39.93
2018-08-23T00:47:21.226Z,38.53
2018-08-23T00:49:49.729Z,39.17
2018-08-23T00:52:18.450Z,41.67
2018-08-23T00:54:46.931Z,41.43
2018-08-23T00:57:15.359Z,36.40
2018-08-23T00:59:47.226Z,34.40
2018-08-23T01:02:15.672Z,35.37
2018-08-23T01:04:45.759Z,38.80
2018-08-23T01:07:18.733Z,39.03
2018-08-23T01:09:47.211Z,34.83
2018-08-23T01:12:15.691Z,42.77
2018-08-23T01:14:44.155Z,35.47
2018-08-23T01:17:16.884Z,35.30
2018-08-23T01:19:50.895Z,36.77
2018-08-23T01:22:19.487Z,34.57
2018-08-23T01:24:49.171Z,36.50
2018-08-23T01:27:51.787Z,35.33
2018-08-23T01:30:22.910Z,34.43
2018-08-23T01:32:51.491Z,36.10
2018-08-23T01:35:19.922Z,35.93
2018-08-23T01:37:48.358Z,34.50
2018-08-23T01:40:16.814Z,38.67
2018-08-23T01:42:45.236Z,35.67
2018-08-23T01:45:13.685Z,37.03
2018-08-23T01:47:47.407Z,35.67
2018-08-23T01:50:15.900Z,36.77
2018-08-23T01:52:48.587Z,42.23
2018-08-23T01:55:17.808Z,38.47
2018-08-23T01:57:46.656Z,36.60
2018-08-23T02:00:19.348Z,35.83
2018-08-23T02:02:47.967Z,35.07
2018-08-23T02:05:16.415Z,38.07
2018-08-23T02:07:44.874Z,32.70
2018-08-23T02:10:13.324Z,37.17
2018-08-23T02:12:46.119Z,38.47
2018-08-23T02:15:14.619Z,32.90
2018-08-23T02:17:48.439Z,33.80
2018-08-23T02:20:16.863Z,39.70
2018-08-23T02:22:45.335Z,36.83
2018-08-23T02:25:13.788Z,34.90
2018-08-23T02:28:11.578Z,34.03
2018-08-23T02:31:01.432Z,32.23
2018-08-23T02:33:29.973Z,31.83
2018-08-23T02:36:22.900Z,30.80
2018-08-23T02:39:09.832Z,34.00
2018-08-23T02:41:41.086Z,34.03
2018-08-23T02:44:09.553Z,30.17
2018-08-23T02:46:38.062Z,29.43
2018-08-23T02:49:06.503Z,28.67
2018-08-23T02:51:41.611Z,32.03
2018-08-23T02:54:12.012Z,30.67
2018-08-23T02:56:43.092Z,29.50
2018-08-23T02:59:11.530Z,30.80
2018-08-23T03:01:41.428Z,31.67
2018-08-23T03:04:17.864Z,27.77
2018-08-23T03:06:50.739Z,31.93
2018-08-23T03:09:22.072Z,29.77
2018-08-23T03:11:51.707Z,34.73
2018-08-23T03:14:21.305Z,36.73
2018-08-23T03:17:40.443Z,35.23
2018-08-23T03:20:15.174Z,37.27
2018-08-23T03:22:44.812Z,35.33
2018-08-23T03:25:14.571Z,39.33
2018-08-23T03:27:43.007Z,33.47
2018-08-23T03:30:12.628Z,38.17
2018-08-23T03:32:41.163Z,36.43
2018-08-23T03:35:09.639Z,39.70
2018-08-23T03:37:38.106Z,34.33
2018-08-23T03:40:07.167Z,39.27
2018-08-23T03:42:35.697Z,39.10
2018-08-23T03:45:04.111Z,38.77
2018-08-23T03:47:39.157Z,38.10
2018-08-23T03:50:08.843Z,39.03
2018-08-23T03:52:37.425Z,39.57
2018-08-23T03:55:07.291Z,41.30
2018-08-23T03:57:41.040Z,41.73
2018-08-23T04:00:09.480Z,41.20
2018-08-23T04:02:38.031Z,38.53
2018-08-23T04:05:13.030Z,38.57
2018-08-23T04:07:42.556Z,42.43
2018-08-23T04:10:10.998Z,40.73
2018-08-23T04:12:40.885Z,47.30
2018-08-23T04:15:17.073Z,41.13
2018-08-23T04:17:46.103Z,43.63
2018-08-23T04:20:14.579Z,43.27
2018-08-23T04:22:43.025Z,40.20
2018-08-23T04:25:11.475Z,44.00
2018-08-23T04:27:39.936Z,43.10
2018-08-23T04:30:09.031Z,45.00
2018-08-23T04:32:41.275Z,38.50
2018-08-23T04:35:14.074Z,42.30
2018-08-23T04:37:42.596Z,42.07
2018-08-23T04:40:12.552Z,43.40
2018-08-23T04:42:41.014Z,43.37
2018-08-23T04:45:11.003Z,44.37
2018-08-23T04:47:48.532Z,41.13
2018-08-23T04:50:16.986Z,47.63
2018-08-23T04:52:45.492Z,42.77
2018-08-23T04:55:13.915Z,47.10
2018-08-23T04:57:42.355Z,47.77
2018-08-23T05:00:10.771Z,42.43
2018-08-23T05:02:39.256Z,41.13
2018-08-23T05:05:07.687Z,47.90
2018-08-23T05:07:36.219Z,45.47
2018-08-23T05:10:04.917Z,43.40
2018-08-23T05:12:33.444Z,44.33
2018-08-23T05:15:01.983Z,48.40
2018-08-23T05:17:30.432Z,48.00
2018-08-23T05:19:58.979Z,44.00
2018-08-23T05:22:27.478Z,45.30
2018-08-23T05:25:00.482Z,45.80
2018-08-23T05:27:28.942Z,41.60
2018-08-23T05:29:57.445Z,42.67
2018-08-23T05:32:25.958Z,42.47
2018-08-23T05:34:54.407Z,44.60
2018-08-23T05:37:22.880Z,45.03
2018-08-23T05:39:52.438Z,45.27
2018-08-23T05:42:33.539Z,45.13
2018-08-23T05:45:01.998Z,39.73
2018-08-23T05:47:30.458Z,45.70
2018-08-23T05:49:58.884Z,43.10
2018-08-23T05:52:27.422Z,41.50
2018-08-23T05:54:56.227Z,42.80
2018-08-23T05:57:24.691Z,41.73
2018-08-23T05:59:54.823Z,43.17
2018-08-23T06:02:23.433Z,41.63
2018-08-23T06:04:51.867Z,38.93
2018-08-23T06:07:20.299Z,43.03
2018-08-23T06:09:48.746Z,37.00
2018-08-23T06:12:17.177Z,39.87
2018-08-23T06:14:45.639Z,40.77
2018-08-23T06:17:14.103Z,40.47
2018-08-23T06:19:42.567Z,40.03
2018-08-23T06:22:11.034Z,37.13
2018-08-23T06:24:39.490Z,35.30
2018-08-23T06:27:07.941Z,38.20
2018-08-23T06:29:36.431Z,37.30
2018-08-23T06:32:09.223Z,37.17
2018-08-23T06:34:41.596Z,36.37
2018-08-23T06:37:10.028Z,36.77
2018-08-23T06:39:40.431Z,31.70
2018-08-23T06:42:08.912Z,34.90
2018-08-23T06:44:43.433Z,32.57
2018-08-23T06:47:13.469Z,32.83
2018-08-23T06:49:43.042Z,28.67
2018-08-23T06:52:14.180Z,30.77
2018-08-23T06:54:43.055Z,33.50
2018-08-23T06:57:11.968Z,32.37
2018-08-23T06:59:40.625Z,30.67
2018-08-23T07:02:09.175Z,30.80
2018-08-23T07:04:37.631Z,31.90
2018-08-23T07:07:06.131Z,32.30
2018-08-23T07:09:40.060Z,28.43
2018-08-23T07:12:13.843Z,31.13
2018-08-23T07:14:42.351Z,34.20
2018-08-23T07:17:17.584Z,32.37
2018-08-23T07:19:47.049Z,30.03
2018-08-23T07:22:21.260Z,32.70
2018-08-23T07:24:50.546Z,33.30
2018-08-23T07:27:20.081Z,31.77
2018-08-23T07:29:50.789Z,28.17
2018-08-23T07:32:21.535Z,32.23
2018-08-23T07:35:02.149Z,29.83
2018-08-23T07:37:31.701Z,30.73
2018-08-23T07:40:05.654Z,28.60
2018-08-23T07:42:35.112Z,33.30
2018-08-23T07:45:03.980Z,30.47
2018-08-23T07:47:33.287Z,33.20
2018-08-23T07:50:02.600Z,33.50
2018-08-23T07:52:32.300Z,29.80
2018-08-23T07:55:02.535Z,35.83
2018-08-23T07:57:32.063Z,32.83
2018-08-23T08:00:01.789Z,33.77
2018-08-23T08:02:30.595Z,36.43
2018-08-23T08:04:59.429Z,39.70
2018-08-23T08:07:29.247Z,35.63
2018-08-23T08:09:59.722Z,34.33
2018-08-23T08:12:37.916Z,37.77
2018-08-23T08:15:08.848Z,36.10
2018-08-23T08:17:37.335Z,34.90
2018-08-23T08:20:07.321Z,33.43
2018-08-23T08:22:35.865Z,32.80
2018-08-23T08:25:09.238Z,36.73
2018-08-23T08:27:38.608Z,36.10
2018-08-23T08:30:12.110Z,38.80
2018-08-23T08:32:40.674Z,38.23
2018-08-23T08:35:16.256Z,32.87
2018-08-23T08:37:45.959Z,37.47
2018-08-23T08:40:18.640Z,36.43
2018-08-23T08:42:47.202Z,35.63
2018-08-23T08:45:15.647Z,37.80
2018-08-23T08:47:45.317Z,34.23
2018-08-23T08:50:13.736Z,37.47
2018-08-23T08:52:42.229Z,34.70
2018-08-23T08:55:12.470Z,30.07
2018-08-23T08:57:43.955Z,34.97
2018-08-23T09:00:12.501Z,33.83
2018-08-23T09:02:41.051Z,34.73
2018-08-23T09:05:10.411Z,30.63
2018-08-23T09:07:40.633Z,30.97
2018-08-23T09:10:09.088Z,30.13
2018-08-23T09:12:42.924Z,29.53
2018-08-23T09:15:11.384Z,26.53
2018-08-23T09:17:45.152Z,27.80
2018-08-23T09:20:17.804Z,20.27
2018-08-23T09:22:50.791Z,21.00
2018-08-23T09:25:33.198Z,21.20
2018-08-23T09:28:01.744Z,17.73
2018-08-23T09:30:31.515Z,22.57
2018-08-23T09:33:05.498Z,24.47
2018-08-23T09:35:34.487Z,19.77
2018-08-23T09:38:12.100Z,22.90
2018-08-23T09:40:40.598Z,19.47
2018-08-23T09:43:09.240Z,19.93
2018-08-23T09:45:38.482Z,22.27
2018-08-23T09:48:06.974Z,26.97
2018-08-23T09:50:35.594Z,20.63
2018-08-23T09:53:10.008Z,20.80
2018-08-23T09:55:38.495Z,19.33
2018-08-23T09:58:11.172Z,23.20
2018-08-23T10:01:43.775Z,19.60
2018-08-23T10:04:17.545Z,21.60
2018-08-23T10:06:51.354Z,22.47
2018-08-23T10:09:21.956Z,21.60
2018-08-23T10:11:55.738Z,21.83
2018-08-23T10:14:29.684Z,16.23
2018-08-23T10:17:03.635Z,22.20
2018-08-23T10:19:37.251Z,21.23
2018-08-23T10:22:11.073Z,22.70
2018-08-23T10:24:39.531Z,25.50
2018-08-23T10:27:08.115Z,35.30
2018-08-23T10:29:36.578Z,22.27
2018-08-23T10:32:05.096Z,23.53
2018-08-23T10:34:33.574Z,46.53
2018-08-23T10:37:02.063Z,28.53
2018-08-23T10:39:30.503Z,22.10
2018-08-23T10:41:58.959Z,24.67
2018-08-23T10:44:27.517Z,25.43
2018-08-23T10:46:56.500Z,23.70
2018-08-23T10:49:25.723Z,23.13
2018-08-23T10:51:54.197Z,24.17
2018-08-23T10:54:22.745Z,22.70
2018-08-23T10:56:51.174Z,23.57
2018-08-23T10:59:19.660Z,23.90
2018-08-23T11:01:48.138Z,23.57
2018-08-23T11:04:16.676Z,24.50
2018-08-23T11:06:50.412Z,24.00
2018-08-23T11:09:24.189Z,24.97
2018-08-23T11:11:52.682Z,25.20
2018-08-23T11:14:26.389Z,24.57
2018-08-23T11:17:00.299Z,23.27
2018-08-23T11:19:34.102Z,25.97
2018-08-23T11:22:02.557Z,23.70
2018-08-23T11:24:31.077Z,19.17
2018-08-23T11:26:59.524Z,18.37
2018-08-23T11:29:28.060Z,21.53
2018-08-23T11:31:56.531Z,19.20
2018-08-23T11:34:25.071Z,16.37
2018-08-23T11:36:53.527Z,16.00
2018-08-23T11:39:22.019Z,16.10
2018-08-23T11:41:50.533Z,16.60
2018-08-23T11:44:19.123Z,13.70
2018-08-23T11:46:47.595Z,13.00
2018-08-23T11:49:16.043Z,13.20
2018-08-23T11:51:44.533Z,14.03
2018-08-23T11:54:13.002Z,12.33
2018-08-23T11:56:41.460Z,15.40
2018-08-23T11:59:10.013Z,11.90
2018-08-23T12:01:38.393Z,10.43
2018-08-23T12:04:07.131Z,10.63
2018-08-23T12:06:35.590Z,9.87
2018-08-23T12:09:04.899Z,8.90
2018-08-23T12:11:33.356Z,7.63
2018-08-23T12:14:01.898Z,8.00
2018-08-23T12:16:30.360Z,7.13
2018-08-23T12:18:58.819Z,9.37
2018-08-23T12:21:27.313Z,10.67
2018-08-23T12:23:55.803Z,7.67
2018-08-23T12:26:24.259Z,7.30
2018-08-23T12:28:57.966Z,7.40
2018-08-23T12:31:26.432Z,6.93
2018-08-23T12:33:54.989Z,5.43
2018-08-23T12:36:28.814Z,5.77
2018-08-23T12:39:02.692Z,5.00
2018-08-23T12:41:36.410Z,5.97
2018-08-23T12:44:04.896Z,5.03
2018-08-23T12:46:33.488Z,5.47
2018-08-23T12:49:02.064Z,5.23
2018-08-23T12:51:30.540Z,7.13
2018-08-23T12:53:59.032Z,5.17
2018-08-23T12:56:27.561Z,5.97
2018-08-23T12:58:55.928Z,5.53
2018-08-23T13:01:24.449Z,6.30
2018-08-23T13:03:53.038Z,4.90
2018-08-23T13:06:21.491Z,4.53
2018-08-23T13:08:50.148Z,5.43
2018-08-23T13:11:18.615Z,6.67
2018-08-23T13:13:47.192Z,8.53
2018-08-23T13:16:15.645Z,9.53
2018-08-23T13:18:44.173Z,7.67
2018-08-23T13:21:12.591Z,6.60
2018-08-23T13:23:47.557Z,5.20
2018-08-23T13:26:16.019Z,5.80
2018-08-23T13:28:44.505Z,8.17
2018-08-23T13:31:13.030Z,4.90
2018-08-23T13:33:41.584Z,5.57
2018-08-23T13:36:10.130Z,5.43
2018-08-23T13:38:38.539Z,5.97
2018-08-23T13:41:06.992Z,10.67
2018-08-23T13:43:35.654Z,6.67
2018-08-23T13:46:04.047Z,5.50
2018-08-23T13:48:32.676Z,5.00
2018-08-23T13:51:01.047Z,5.73
2018-08-23T13:53:29.565Z,3.93
2018-08-23T13:55:58.013Z,5.20
2018-08-23T13:58:26.542Z,5.10
2018-08-23T14:00:55.027Z,6.73
2018-08-23T14:03:23.561Z,4.30
2018-08-23T14:05:52.035Z,5.13
2018-08-23T14:08:20.521Z,4.33
2018-08-23T14:10:49.031Z,4.83
2018-08-23T14:13:17.515Z,5.53
2018-08-23T14:15:51.421Z,6.07
2018-08-23T14:18:19.906Z,4.23
2018-08-23T14:20:48.349Z,5.80
2018-08-23T14:23:16.843Z,5.67
2018-08-23T14:25:45.318Z,5.20
2018-08-23T14:28:13.809Z,4.70
2018-08-23T14:30:42.290Z,6.40
2018-08-23T14:33:10.831Z,3.70
2018-08-23T14:35:39.323Z,5.97
2018-08-23T14:38:07.841Z,2.93
2018-08-23T14:40:36.311Z,4.40
2018-08-23T14:43:04.896Z,4.70
2018-08-23T14:45:34.165Z,4.40
2018-08-23T14:48:07.960Z,2.63
2018-08-23T14:50:36.827Z,2.60
2018-08-23T14:53:06.011Z,2.20
2018-08-23T14:55:39.804Z,17.17
2018-08-23T14:58:09.268Z,2.83
2018-08-23T15:00:37.778Z,7.40
2018-08-23T15:03:06.652Z,3.87
2018-08-23T15:05:35.362Z,3.67
2018-08-23T15:08:03.849Z,2.97
2018-08-23T15:10:32.313Z,4.87
2018-08-23T15:13:00.882Z,5.13
2018-08-23T15:15:34.815Z,4.77
2018-08-23T15:18:03.287Z,4.37
2018-08-23T15:20:31.827Z,5.63
2018-08-23T15:23:00.429Z,4.00
2018-08-23T15:25:28.900Z,5.73
2018-08-23T15:27:57.355Z,6.83
2018-08-23T15:30:25.847Z,4.43
2018-08-23T15:32:54.359Z,4.33
2018-08-23T15:35:22.833Z,11.20
2018-08-23T15:37:51.283Z,6.73
2018-08-23T15:40:19.763Z,5.63
2018-08-23T15:42:48.255Z,6.00
2018-08-23T15:45:17.285Z,4.40
2018-08-23T15:47:45.763Z,6.40
2018-08-23T15:50:14.282Z,8.47
2018-08-23T15:52:42.792Z,5.53
2018-08-23T15:55:11.383Z,6.93
2018-08-23T15:57:39.772Z,4.90
2018-08-23T16:00:09.513Z,4.57
2018-08-23T16:02:38.049Z,7.83
2018-08-23T16:05:06.784Z,8.23
2018-08-23T16:07:35.236Z,7.70
2018-08-23T16:10:03.727Z,12.07
2018-08-23T16:12:32.291Z,9.50
2018-08-23T16:15:00.769Z,6.37
2018-08-23T16:17:34.604Z,8.43
2018-08-23T16:20:08.327Z,9.23
2018-08-23T16:22:36.872Z,5.23
2018-08-23T16:25:05.441Z,7.50
2018-08-23T16:27:33.812Z,8.83
2018-08-23T16:30:02.300Z,6.80
2018-08-23T16:32:34.203Z,7.77
2018-08-23T16:35:02.871Z,7.23
2018-08-23T16:37:32.218Z,7.30
2018-08-23T16:40:00.674Z,6.03
2018-08-23T16:42:29.237Z,5.20
2018-08-23T16:44:57.735Z,3.37
2018-08-23T16:47:26.188Z,3.07
2018-08-23T16:49:54.631Z,3.50
2018-08-23T16:52:23.147Z,9.33
2018-08-23T16:54:51.604Z,6.40
2018-08-23T16:57:20.051Z,4.90
2018-08-23T16:59:48.554Z,5.70
2018-08-23T17:02:17.067Z,6.80
2018-08-23T17:04:46.814Z,8.97
2018-08-23T17:07:16.451Z,8.93
2018-08-23T17:09:45.037Z,9.00
2018-08-23T17:12:13.568Z,6.33
2018-08-23T17:14:42.043Z,5.93
2018-08-23T17:17:44.223Z,4.63
2018-08-23T17:20:12.900Z,3.73
2018-08-23T17:22:41.352Z,5.07
2018-08-23T17:25:09.831Z,4.47
2018-08-23T17:27:38.309Z,3.70
2018-08-23T17:30:06.798Z,2.70
2018-08-23T17:32:35.319Z,3.27
2018-08-23T17:35:03.757Z,3.20
2018-08-23T17:37:32.268Z,3.10
2018-08-23T17:40:00.765Z,4.20
2018-08-23T17:42:34.579Z,3.70
2018-08-23T17:45:03.128Z,2.63
2018-08-23T17:47:31.589Z,3.17
2018-08-23T17:50:00.069Z,4.07
2018-08-23T17:52:28.588Z,1.33
2018-08-23T17:54:57.017Z,3.20
2018-08-23T17:57:25.664Z,3.43
2018-08-23T17:59:54.152Z,3.57
2018-08-23T18:02:22.608Z,3.53
2018-08-23T18:04:51.356Z,1.07
2018-08-23T18:07:19.830Z,3.50
2018-08-23T18:09:48.314Z,3.03
2018-08-23T18:12:16.839Z,0.87
2018-08-23T18:14:45.272Z,2.00
2018-08-23T18:17:13.719Z,2.70
2018-08-23T18:19:42.166Z,2.57
2018-08-23T18:22:10.666Z,0.70
2018-08-23T18:24:39.144Z,1.47
2018-08-23T18:27:07.578Z,2.60
2018-08-23T18:29:36.060Z,1.93
2018-08-23T18:32:04.512Z,2.80
2018-08-23T18:34:32.935Z,3.40
2018-08-23T18:37:01.381Z,1.43
2018-08-23T18:39:29.816Z,2.90
2018-08-23T18:41:58.244Z,2.17
2018-08-23T18:51:13.220Z,1.20
2018-08-23T18:53:41.720Z,2.23
2018-08-23T18:56:10.188Z,5.57
2018-08-23T18:58:38.618Z,3.20
2018-08-23T19:01:07.047Z,4.97
2018-08-23T19:03:35.540Z,4.63
2018-08-23T19:06:04.380Z,5.13
2018-08-23T19:08:32.851Z,8.00
2018-08-23T19:11:01.302Z,9.00
2018-08-23T19:13:29.812Z,7.33
2018-08-23T19:16:03.596Z,9.97
2018-08-23T19:18:32.053Z,8.10
2018-08-23T19:21:00.530Z,10.20
2018-08-23T19:23:29.030Z,10.80
2018-08-23T19:25:57.539Z,9.93
2018-08-23T19:28:25.919Z,8.67
2018-08-23T19:30:54.344Z,12.00
2018-08-23T19:33:22.874Z,8.93
2018-08-23T19:35:51.328Z,7.23
2018-08-23T19:38:19.807Z,13.47
2018-08-23T19:40:48.283Z,10.20
2018-08-23T19:43:16.771Z,9.83
2018-08-23T19:45:50.655Z,11.80
2018-08-23T19:48:19.085Z,8.27
2018-08-23T19:50:47.576Z,9.80
2018-08-23T19:53:16.049Z,7.00
2018-08-23T19:55:44.492Z,11.73
2018-08-23T19:58:12.959Z,10.67
2018-08-23T20:00:41.439Z,8.63
2018-08-23T20:03:09.958Z,6.97
2018-08-23T20:05:38.438Z,5.93
2018-08-23T20:08:06.855Z,9.30
2018-08-23T20:10:35.323Z,10.10
2018-08-23T20:13:03.912Z,8.77
2018-08-23T20:15:32.359Z,8.23
2018-08-23T20:18:00.829Z,8.20
2018-08-23T20:20:29.262Z,12.10
2018-08-23T20:22:57.835Z,14.10
2018-08-23T20:25:26.263Z,7.60
2018-08-23T20:27:54.714Z,7.93
2018-08-23T20:30:23.141Z,8.37
2018-08-23T20:32:51.652Z,10.70
2018-08-23T20:35:20.167Z,6.63
2018-08-23T20:37:48.642Z,11.80
2018-08-23T20:40:17.141Z,5.67
2018-08-23T20:42:45.663Z,7.33
2018-08-23T20:45:14.424Z,8.07
2018-08-23T20:47:42.893Z,8.60
2018-08-23T20:50:11.384Z,7.77
2018-08-23T20:52:39.919Z,7.87
2018-08-23T20:55:08.353Z,8.90
2018-08-23T20:57:36.804Z,7.13
2018-08-23T21:00:06.044Z,10.70
2018-08-23T21:02:34.557Z,8.20
2018-08-23T21:05:03.059Z,6.20
2018-08-23T21:07:31.508Z,5.70
2018-08-23T21:10:00.056Z,5.33
2018-08-23T21:12:28.508Z,6.97
2018-08-23T21:14:56.943Z,6.97
2018-08-23T21:17:25.375Z,6.13
2018-08-23T21:19:53.848Z,5.63
2018-08-23T21:22:22.295Z,9.90
2018-08-23T21:24:50.719Z,4.90
2018-08-23T21:27:19.179Z,9.13
2018-08-23T21:29:47.663Z,9.90
2018-08-23T21:32:16.151Z,7.97
2018-08-23T21:34:44.571Z,10.37
2018-08-23T21:37:13.005Z,7.70
2018-08-23T21:39:41.458Z,8.03
2018-08-23T21:42:09.906Z,8.33
2018-08-23T21:44:38.343Z,8.67
2018-08-23T21:47:07.267Z,6.47
2018-08-23T21:49:35.691Z,10.63
2018-08-23T21:52:04.136Z,10.20
2018-08-23T21:54:32.584Z,8.83
2018-08-23T21:57:01.016Z,13.17
2018-08-23T21:59:29.477Z,12.30
2018-08-23T22:02:03.389Z,7.80
2018-08-23T22:04:35.207Z,8.93
2018-08-23T22:07:03.656Z,12.23
2018-08-23T22:09:32.196Z,7.17
2018-08-23T22:12:00.645Z,9.63
2018-08-23T22:14:29.137Z,12.80
2018-08-23T22:16:57.600Z,6.93
2018-08-23T22:19:26.036Z,7.47
2018-08-23T22:21:54.467Z,9.03
2018-08-23T22:24:22.959Z,12.57
2018-08-23T22:26:51.477Z,10.47
2018-08-23T22:29:19.893Z,12.63
2018-08-23T22:31:48.324Z,10.07
2018-08-23T22:34:16.757Z,10.30
2018-08-23T22:36:45.211Z,10.37
2018-08-23T22:39:13.632Z,8.30
2018-08-23T22:41:42.070Z,8.77
2018-08-23T22:44:10.673Z,9.77
2018-08-23T22:46:39.075Z,9.13
2018-08-23T22:49:07.499Z,9.57
2018-08-23T22:51:35.918Z,10.83
2018-08-23T22:54:04.435Z,12.93
2018-08-23T22:56:32.850Z,12.70
2018-08-23T22:59:01.542Z,12.10
2018-08-23T23:01:30.009Z,9.73
2018-08-23T23:04:03.829Z,11.73
2018-08-23T23:06:32.292Z,12.63
2018-08-23T23:09:00.727Z,14.40
2018-08-23T23:11:29.189Z,13.33
2018-08-23T23:13:57.708Z,12.87
2018-08-23T23:16:26.287Z,11.43
2018-08-23T23:18:54.648Z,10.23
2018-08-23T23:21:23.080Z,16.67
2018-08-23T23:23:51.532Z,11.47
2018-08-23T23:26:19.961Z,13.80
2018-08-23T23:28:48.439Z,13.87
2018-08-23T23:31:16.881Z,11.77
2018-08-23T23:33:45.724Z,9.80
2018-08-23T23:36:14.232Z,11.03
2018-08-23T23:38:42.671Z,10.43
2018-08-23T23:41:11.180Z,13.00
2018-08-23T23:43:39.717Z,14.37
2018-08-23T23:46:08.150Z,12.73
2018-08-23T23:48:36.631Z,12.07
2018-08-23T23:51:05.706Z,12.03
2018-08-23T23:53:34.420Z,10.80
2018-08-23T23:56:02.871Z,13.33
2018-08-23T23:58:31.327Z,14.33
